Dubai Fortune — H9SA — position and weather

sailwx.info

Track history (hours):
 
Tides and Currents Weather Stations Pressure Air Temp Water Temp Dewpoint Dewpoint Depression Visibility Wind Speed Wind Dir Waves Ship Positions

Dubai Fortune

Last reported at 2017-Jan-21 15:32 UTC. Time now 2017-Jan-21 21:44 UTC.
Position N 31°06' E 122°24'.

Length 188 m; draft 7.3 m.

Type: Cargo ship. MMSI: 353316000.

Date/timePositionNaut miles runAvg speedWind from/ knotsBaromVisibWave heightAir tempDewpointWater temp
2017-Jan-21 15:32N 31°06' E 122°24'1212.2
2017-Jan-21 14:33N 31°10' E 122°11'10 9.9
2017-Jan-21 13:33N 31°15' E 122°01'1212.4
2017-Jan-21 12:33N 31°18' E 121°47'1212.0
2017-Jan-21 11:33N 31°23' E 121°35'10 9.9
2017-Jan-21 10:33N 31°30' E 121°26'1010.4
2017-Jan-21 09:33N 31°37' E 121°17'1211.9
2017-Jan-21 08:33N 31°44' E 121°06'3511.7
2017-Jan-21 05:33N 32°02' E 120°30'  
2017-Jan-17 06:33N 32°01' E 120°25'8 7.3
2017-Jan-17 05:30N 32°01' E 120°34'20 6.8
2017-Jan-17 02:32N 31°50' E 120°54'7 7.6
2017-Jan-17 01:33N 31°46' E 121°02'8 8.3
2017-Jan-17 00:33N 31°41' E 121°10'9 8.8
2017-Jan-16 23:33N 31°36' E 121°18'9 9.4
2017-Jan-16 22:33N 31°30' E 121°26'7 7.1
2017-Jan-16 21:33N 31°25' E 121°32'9 9.4
2017-Jan-16 20:33N 31°20' E 121°42'1110.9
2017-Jan-16 19:33N 31°16' E 121°53'1211.6
2017-Jan-16 18:33N 31°13' E 122°07'1212.0
2017-Jan-16 17:33N 31°06' E 122°18'  
Track history (hours):
 
Tides and Currents Weather Stations Pressure Air Temp Water Temp Dewpoint Dewpoint Depression Visibility Wind Speed Wind Dir Waves Ship Positions

Dubai Fortune

Last reported at 2017-Jan-21 15:32 UTC. Time now 2017-Jan-21 21:44 UTC.
Position N 31°06' E 122°24'.

Length 188 m; draft 7.3 m.

Type: Cargo ship. MMSI: 353316000.

Date/timePositionNaut miles runAvg speedWind from/ knotsBaromVisibWave heightAir tempDewpointWater temp
2017-Jan-21 15:32N 31°06' E 122°24'1212.2
2017-Jan-21 14:33N 31°10' E 122°11'10 9.9
2017-Jan-21 13:33N 31°15' E 122°01'1212.4
2017-Jan-21 12:33N 31°18' E 121°47'1212.0
2017-Jan-21 11:33N 31°23' E 121°35'10 9.9
2017-Jan-21 10:33N 31°30' E 121°26'1010.4
2017-Jan-21 09:33N 31°37' E 121°17'1211.9
2017-Jan-21 08:33N 31°44' E 121°06'3511.7
2017-Jan-21 05:33N 32°02' E 120°30'  
2017-Jan-17 06:33N 32°01' E 120°25'8 7.3
2017-Jan-17 05:30N 32°01' E 120°34'20 6.8
2017-Jan-17 02:32N 31°50' E 120°54'7 7.6
2017-Jan-17 01:33N 31°46' E 121°02'8 8.3
2017-Jan-17 00:33N 31°41' E 121°10'9 8.8
2017-Jan-16 23:33N 31°36' E 121°18'9 9.4
2017-Jan-16 22:33N 31°30' E 121°26'7 7.1
2017-Jan-16 21:33N 31°25' E 121°32'9 9.4
2017-Jan-16 20:33N 31°20' E 121°42'1110.9
2017-Jan-16 19:33N 31°16' E 121°53'1211.6
2017-Jan-16 18:33N 31°13' E 122°07'1212.0
2017-Jan-16 17:33N 31°06' E 122°18'  

Dump ship's entire track history